sensor_id;sensor_type;location;lat;lon;timestamp;pressure;altitude;pressure_sealevel;temperature;humidity
85078;BME280;75413;50.144;8.456;2024-01-25T00:02:07;100004.56;;;8.57;62.95
85078;BME280;75413;50.144;8.456;2024-01-25T00:04:51;100009.47;;;8.62;62.88
85078;BME280;75413;50.144;8.456;2024-01-25T00:07:45;100009.72;;;8.59;62.55
85078;BME280;75413;50.144;8.456;2024-01-25T00:10:28;100000.09;;;8.69;62.70
85078;BME280;75413;50.144;8.456;2024-01-25T00:13:12;99962.13;;;8.41;63.44
85078;BME280;75413;50.144;8.456;2024-01-25T00:15:56;99983.22;;;8.51;62.87
85078;BME280;75413;50.144;8.456;2024-01-25T00:18:40;99999.19;;;8.59;63.61
85078;BME280;75413;50.144;8.456;2024-01-25T00:21:24;99944.91;;;8.17;63.31
85078;BME280;75413;50.144;8.456;2024-01-25T00:24:10;100010.59;;;8.48;63.94
85078;BME280;75413;50.144;8.456;2024-01-25T00:26:54;100003.56;;;8.49;64.54
85078;BME280;75413;50.144;8.456;2024-01-25T00:29:38;100007.59;;;8.53;63.98
85078;BME280;75413;50.144;8.456;2024-01-25T00:32:22;100008.63;;;8.61;63.65
85078;BME280;75413;50.144;8.456;2024-01-25T00:35:06;100017.81;;;8.67;63.84
85078;BME280;75413;50.144;8.456;2024-01-25T00:37:53;100002.78;;;8.78;63.64
85078;BME280;75413;50.144;8.456;2024-01-25T00:40:38;100005.09;;;8.72;63.64
85078;BME280;75413;50.144;8.456;2024-01-25T00:43:22;100010.72;;;8.67;63.48
85078;BME280;75413;50.144;8.456;2024-01-25T00:46:07;100010.72;;;8.67;63.49
85078;BME280;75413;50.144;8.456;2024-01-25T00:48:51;99982.25;;;8.52;63.99
85078;BME280;75413;50.144;8.456;2024-01-25T00:51:36;100015.28;;;8.65;63.72
85078;BME280;75413;50.144;8.456;2024-01-25T00:54:20;100020.16;;;8.70;63.76
85078;BME280;75413;50.144;8.456;2024-01-25T00:57:05;100020.69;;;8.64;63.65
85078;BME280;75413;50.144;8.456;2024-01-25T00:59:49;100025.25;;;8.62;64.04
85078;BME280;75413;50.144;8.456;2024-01-25T01:02:36;100032.41;;;8.60;64.78
85078;BME280;75413;50.144;8.456;2024-01-25T01:05:20;100026.66;;;8.66;63.91
85078;BME280;75413;50.144;8.456;2024-01-25T01:08:05;100027.66;;;8.74;63.78
85078;BME280;75413;50.144;8.456;2024-01-25T01:10:49;99994.50;;;8.62;63.39
85078;BME280;75413;50.144;8.456;2024-01-25T01:13:33;100030.06;;;8.77;63.49
85078;BME280;75413;50.144;8.456;2024-01-25T01:16:17;100032.34;;;8.71;63.32
85078;BME280;75413;50.144;8.456;2024-01-25T01:19:03;100038.00;;;8.66;63.44
85078;BME280;75413;50.144;8.456;2024-01-25T01:21:50;100043.38;;;8.65;64.35
85078;BME280;75413;50.144;8.456;2024-01-25T01:24:34;100041.72;;;8.64;64.04
85078;BME280;75413;50.144;8.456;2024-01-25T01:27:18;100053.06;;;8.64;64.48
85078;BME280;75413;50.144;8.456;2024-01-25T01:30:04;100035.13;;;8.38;64.21
85078;BME280;75413;50.144;8.456;2024-01-25T01:32:50;100025.28;;;8.51;64.90
85078;BME280;75413;50.144;8.456;2024-01-25T01:35:35;100034.47;;;8.56;64.16
85078;BME280;75413;50.144;8.456;2024-01-25T01:38:25;100037.19;;;8.66;63.66
85078;BME280;75413;50.144;8.456;2024-01-25T01:41:10;99982.38;;;8.30;64.23
85078;BME280;75413;50.144;8.456;2024-01-25T01:43:55;100023.94;;;8.36;64.97
85078;BME280;75413;50.144;8.456;2024-01-25T01:46:39;100006.75;;;8.32;64.79
85078;BME280;75413;50.144;8.456;2024-01-25T01:49:27;100041.25;;;8.59;63.92
85078;BME280;75413;50.144;8.456;2024-01-25T01:52:11;100012.06;;;8.41;64.45
85078;BME280;75413;50.144;8.456;2024-01-25T01:54:55;100037.22;;;8.55;64.82
85078;BME280;75413;50.144;8.456;2024-01-25T01:57:40;100051.66;;;8.60;64.08
85078;BME280;75413;50.144;8.456;2024-01-25T02:00:25;100038.31;;;8.52;64.57
85078;BME280;75413;50.144;8.456;2024-01-25T02:03:09;100044.97;;;8.56;64.68
85078;BME280;75413;50.144;8.456;2024-01-25T02:06:02;100057.59;;;8.62;64.14
85078;BME280;75413;50.144;8.456;2024-01-25T02:08:47;100032.81;;;8.55;64.15
85078;BME280;75413;50.144;8.456;2024-01-25T02:11:32;100049.69;;;8.73;63.91
85078;BME280;75413;50.144;8.456;2024-01-25T02:14:16;100027.88;;;8.62;63.43
85078;BME280;75413;50.144;8.456;2024-01-25T02:17:03;100041.13;;;8.60;64.32
85078;BME280;75413;50.144;8.456;2024-01-25T02:19:47;100052.44;;;8.72;64.14
85078;BME280;75413;50.144;8.456;2024-01-25T02:22:31;100053.00;;;8.75;63.77
85078;BME280;75413;50.144;8.456;2024-01-25T02:25:16;99996.59;;;8.27;64.41
85078;BME280;75413;50.144;8.456;2024-01-25T02:28:00;100036.53;;;8.53;64.74
85078;BME280;75413;50.144;8.456;2024-01-25T02:30:44;100040.06;;;8.63;64.64
85078;BME280;75413;50.144;8.456;2024-01-25T02:33:28;100011.25;;;8.41;64.58
85078;BME280;75413;50.144;8.456;2024-01-25T02:36:12;100058.22;;;8.66;64.63
85078;BME280;75413;50.144;8.456;2024-01-25T02:39:21;100048.63;;;8.65;64.12
85078;BME280;75413;50.144;8.456;2024-01-25T02:42:05;100056.78;;;8.62;64.15
85078;BME280;75413;50.144;8.456;2024-01-25T02:44:49;100033.94;;;8.62;64.40
85078;BME280;75413;50.144;8.456;2024-01-25T02:47:33;100049.78;;;8.51;65.22
85078;BME280;75413;50.144;8.456;2024-01-25T02:50:17;100018.97;;;8.11;65.71
85078;BME280;75413;50.144;8.456;2024-01-25T02:53:01;100041.94;;;8.40;65.27
85078;BME280;75413;50.144;8.456;2024-01-25T02:55:46;100028.72;;;8.31;65.06
85078;BME280;75413;50.144;8.456;2024-01-25T02:58:29;100050.78;;;8.39;65.04
85078;BME280;75413;50.144;8.456;2024-01-25T03:01:13;100046.38;;;8.40;65.43
85078;BME280;75413;50.144;8.456;2024-01-25T03:03:58;100056.91;;;8.40;65.32
85078;BME280;75413;50.144;8.456;2024-01-25T03:06:42;100061.06;;;8.42;66.04
85078;BME280;75413;50.144;8.456;2024-01-25T03:09:26;100051.63;;;8.40;66.14
85078;BME280;75413;50.144;8.456;2024-01-25T03:12:11;100064.41;;;8.33;65.46
85078;BME280;75413;50.144;8.456;2024-01-25T03:14:55;100063.59;;;8.33;66.05
85078;BME280;75413;50.144;8.456;2024-01-25T03:17:39;100038.41;;;8.19;65.57
85078;BME280;75413;50.144;8.456;2024-01-25T03:20:23;100065.53;;;8.20;65.84
85078;BME280;75413;50.144;8.456;2024-01-25T03:23:06;100064.06;;;8.27;66.04
85078;BME280;75413;50.144;8.456;2024-01-25T03:25:50;100081.56;;;8.06;67.43
85078;BME280;75413;50.144;8.456;2024-01-25T03:28:34;100058.22;;;7.81;67.81
85078;BME280;75413;50.144;8.456;2024-01-25T03:31:19;100090.25;;;8.06;66.78
85078;BME280;75413;50.144;8.456;2024-01-25T03:34:03;100090.63;;;8.24;66.86
85078;BME280;75413;50.144;8.456;2024-01-25T03:36:48;100102.91;;;8.23;67.04
85078;BME280;75413;50.144;8.456;2024-01-25T03:51:55;100105.59;;;7.79;68.53
85078;BME280;75413;50.144;8.456;2024-01-25T03:54:39;100070.16;;;7.63;68.00
85078;BME280;75413;50.144;8.456;2024-01-25T03:57:23;100111.78;;;8.00;67.10
85078;BME280;75413;50.144;8.456;2024-01-25T04:00:08;100081.38;;;7.76;67.37
85078;BME280;75413;50.144;8.456;2024-01-25T04:02:59;100077.06;;;7.74;67.61
85078;BME280;75413;50.144;8.456;2024-01-25T04:05:43;100119.28;;;8.05;67.80
85078;BME280;75413;50.144;8.456;2024-01-25T04:08:27;100114.16;;;8.03;66.90
85078;BME280;75413;50.144;8.456;2024-01-25T04:15:21;100080.88;;;7.82;67.90
85078;BME280;75413;50.144;8.456;2024-01-25T04:18:05;100105.44;;;8.03;67.10
85078;BME280;75413;50.144;8.456;2024-01-25T04:20:49;100108.06;;;8.03;67.25
85078;BME280;75413;50.144;8.456;2024-01-25T04:23:34;100115.03;;;7.93;67.21
85078;BME280;75413;50.144;8.456;2024-01-25T04:26:18;100112.13;;;7.96;67.58
85078;BME280;75413;50.144;8.456;2024-01-25T04:29:02;100113.09;;;7.95;67.25
85078;BME280;75413;50.144;8.456;2024-01-25T04:31:46;100061.69;;;7.70;67.11
85078;BME280;75413;50.144;8.456;2024-01-25T04:34:32;100109.97;;;8.01;66.89
85078;BME280;75413;50.144;8.456;2024-01-25T04:37:15;100116.56;;;7.84;67.03
85078;BME280;75413;50.144;8.456;2024-01-25T04:39:59;100123.50;;;7.74;67.93
85078;BME280;75413;50.144;8.456;2024-01-25T04:42:43;100138.06;;;7.78;68.11
85078;BME280;75413;50.144;8.456;2024-01-25T04:45:27;100104.28;;;7.63;67.52
85078;BME280;75413;50.144;8.456;2024-01-25T04:48:11;100139.13;;;7.87;67.71
85078;BME280;75413;50.144;8.456;2024-01-25T04:50:56;100148.91;;;7.85;67.59
85078;BME280;75413;50.144;8.456;2024-01-25T04:53:42;100120.97;;;7.61;67.80
85078;BME280;75413;50.144;8.456;2024-01-25T04:56:26;100151.28;;;7.88;67.08
85078;BME280;75413;50.144;8.456;2024-01-25T04:59:16;100166.19;;;7.98;67.22
85078;BME280;75413;50.144;8.456;2024-01-25T05:02:03;100141.50;;;7.78;67.35
85078;BME280;75413;50.144;8.456;2024-01-25T05:04:46;100148.19;;;7.72;66.96
85078;BME280;75413;50.144;8.456;2024-01-25T05:07:30;100173.75;;;7.81;67.34
85078;BME280;75413;50.144;8.456;2024-01-25T05:10:15;100150.59;;;7.63;67.93
85078;BME280;75413;50.144;8.456;2024-01-25T05:12:59;100189.72;;;7.78;67.57
85078;BME280;75413;50.144;8.456;2024-01-25T05:15:43;100150.22;;;7.57;67.48
85078;BME280;75413;50.144;8.456;2024-01-25T05:18:27;100170.75;;;7.74;67.40
85078;BME280;75413;50.144;8.456;2024-01-25T05:21:11;100151.88;;;7.58;67.89
85078;BME280;75413;50.144;8.456;2024-01-25T05:23:55;100136.72;;;7.61;67.51
85078;BME280;75413;50.144;8.456;2024-01-25T05:26:39;100173.84;;;7.79;67.33
85078;BME280;75413;50.144;8.456;2024-01-25T05:29:23;100152.25;;;7.76;67.54
85078;BME280;75413;50.144;8.456;2024-01-25T05:32:07;100163.81;;;7.84;67.87
85078;BME280;75413;50.144;8.456;2024-01-25T05:34:51;100173.00;;;7.78;67.49
85078;BME280;75413;50.144;8.456;2024-01-25T05:37:35;100178.38;;;7.77;67.59
85078;BME280;75413;50.144;8.456;2024-01-25T05:40:19;100169.91;;;7.73;66.87
85078;BME280;75413;50.144;8.456;2024-01-25T05:43:03;100178.03;;;7.82;67.38
85078;BME280;75413;50.144;8.456;2024-01-25T05:45:47;100168.25;;;7.72;67.34
85078;BME280;75413;50.144;8.456;2024-01-25T05:48:33;100171.09;;;7.69;67.65
85078;BME280;75413;50.144;8.456;2024-01-25T05:51:17;100147.81;;;7.43;67.62
85078;BME280;75413;50.144;8.456;2024-01-25T05:54:01;100178.63;;;7.74;67.85
85078;BME280;75413;50.144;8.456;2024-01-25T05:56:45;100186.63;;;7.83;67.02
85078;BME280;75413;50.144;8.456;2024-01-25T05:59:29;100135.53;;;7.65;67.54
85078;BME280;75413;50.144;8.456;2024-01-25T06:02:17;100187.56;;;7.82;67.08
85078;BME280;75413;50.144;8.456;2024-01-25T06:05:01;100193.56;;;7.85;67.23
85078;BME280;75413;50.144;8.456;2024-01-25T06:07:45;100197.50;;;7.79;68.13
85078;BME280;75413;50.144;8.456;2024-01-25T06:10:30;100180.88;;;7.78;67.63
85078;BME280;75413;50.144;8.456;2024-01-25T06:13:14;100178.72;;;7.83;66.80
85078;BME280;75413;50.144;8.456;2024-01-25T06:15:58;100208.97;;;8.00;66.57
85078;BME280;75413;50.144;8.456;2024-01-25T06:18:42;100216.84;;;8.00;66.72
85078;BME280;75413;50.144;8.456;2024-01-25T06:21:29;100217.19;;;7.96;67.51
85078;BME280;75413;50.144;8.456;2024-01-25T06:24:13;100187.84;;;7.80;66.84
85078;BME280;75413;50.144;8.456;2024-01-25T06:26:57;100213.38;;;7.89;67.05
85078;BME280;75413;50.144;8.456;2024-01-25T06:29:41;100213.25;;;7.79;68.34
85078;BME280;75413;50.144;8.456;2024-01-25T06:32:25;100211.56;;;7.78;67.71
85078;BME280;75413;50.144;8.456;2024-01-25T06:35:09;100183.00;;;7.51;68.38
85078;BME280;75413;50.144;8.456;2024-01-25T06:37:53;100190.56;;;7.56;68.37
85078;BME280;75413;50.144;8.456;2024-01-25T06:40:37;100196.94;;;7.30;69.36
85078;BME280;75413;50.144;8.456;2024-01-25T06:43:22;100169.22;;;6.80;70.62
85078;BME280;75413;50.144;8.456;2024-01-25T06:46:09;100178.97;;;6.78;70.69
85078;BME280;75413;50.144;8.456;2024-01-25T06:48:53;100208.69;;;6.90;70.68
85078;BME280;75413;50.144;8.456;2024-01-25T06:51:43;100175.47;;;6.90;70.03
85078;BME280;75413;50.144;8.456;2024-01-25T06:54:27;100197.47;;;7.11;70.01
85078;BME280;75413;50.144;8.456;2024-01-25T06:57:11;100180.63;;;7.03;69.19
85078;BME280;75413;50.144;8.456;2024-01-25T06:59:55;100206.31;;;7.21;69.31
85078;BME280;75413;50.144;8.456;2024-01-25T07:02:39;100212.53;;;7.20;69.13
85078;BME280;75413;50.144;8.456;2024-01-25T07:05:23;100207.28;;;7.20;69.75
85078;BME280;75413;50.144;8.456;2024-01-25T07:08:08;100209.16;;;7.18;68.93
85078;BME280;75413;50.144;8.456;2024-01-25T07:11:02;100197.19;;;7.03;69.15
85078;BME280;75413;50.144;8.456;2024-01-25T07:13:46;100216.31;;;7.16;67.97
85078;BME280;75413;50.144;8.456;2024-01-25T07:16:30;100226.91;;;7.15;69.31
85078;BME280;75413;50.144;8.456;2024-01-25T07:19:15;100228.44;;;7.06;69.67
85078;BME280;75413;50.144;8.456;2024-01-25T07:21:59;100200.94;;;6.88;69.83
85078;BME280;75413;50.144;8.456;2024-01-25T07:24:43;100208.97;;;6.98;69.18
85078;BME280;75413;50.144;8.456;2024-01-25T07:27:26;100224.81;;;6.96;69.80
85078;BME280;75413;50.144;8.456;2024-01-25T07:30:11;100219.84;;;6.81;70.66
85078;BME280;75413;50.144;8.456;2024-01-25T07:32:56;100228.78;;;6.78;70.34
85078;BME280;75413;50.144;8.456;2024-01-25T07:35:40;100221.03;;;6.77;71.25
85078;BME280;75413;50.144;8.456;2024-01-25T07:38:29;100222.25;;;6.84;70.27
85078;BME280;75413;50.144;8.456;2024-01-25T07:41:15;100227.22;;;6.99;69.84
85078;BME280;75413;50.144;8.456;2024-01-25T07:43:59;100225.31;;;7.01;69.12
85078;BME280;75413;50.144;8.456;2024-01-25T07:46:43;100195.09;;;6.85;68.95
85078;BME280;75413;50.144;8.456;2024-01-25T07:49:29;100199.38;;;6.86;69.51
85078;BME280;75413;50.144;8.456;2024-01-25T07:52:13;100215.06;;;6.98;69.20
85078;BME280;75413;50.144;8.456;2024-01-25T07:54:57;100234.56;;;7.18;68.60
85078;BME280;75413;50.144;8.456;2024-01-25T07:57:42;100242.09;;;7.22;68.31
85078;BME280;75413;50.144;8.456;2024-01-25T08:00:26;100243.81;;;7.34;68.79
85078;BME280;75413;50.144;8.456;2024-01-25T08:03:10;100197.19;;;7.03;68.43
85078;BME280;75413;50.144;8.456;2024-01-25T08:05:54;100226.34;;;7.22;67.87
85078;BME280;75413;50.144;8.456;2024-01-25T08:08:38;100253.88;;;7.51;68.30
85078;BME280;75413;50.144;8.456;2024-01-25T08:11:22;100256.19;;;7.67;68.29
85078;BME280;75413;50.144;8.456;2024-01-25T08:14:07;100233.50;;;7.66;67.87
85078;BME280;75413;50.144;8.456;2024-01-25T08:16:51;100253.69;;;7.88;66.96
85078;BME280;75413;50.144;8.456;2024-01-25T08:19:35;100249.19;;;7.90;67.69
85078;BME280;75413;50.144;8.456;2024-01-25T08:22:19;100232.09;;;7.84;67.33
85078;BME280;75413;50.144;8.456;2024-01-25T08:25:03;100257.56;;;8.06;67.32
85078;BME280;75413;50.144;8.456;2024-01-25T08:27:48;100253.00;;;8.08;66.94
85078;BME280;75413;50.144;8.456;2024-01-25T08:30:32;100229.50;;;7.95;66.81
85078;BME280;75413;50.144;8.456;2024-01-25T08:33:16;100264.00;;;8.13;67.36
85078;BME280;75413;50.144;8.456;2024-01-25T08:36:00;100239.38;;;7.92;66.72
85078;BME280;75413;50.144;8.456;2024-01-25T08:38:44;100248.34;;;7.89;66.87
85078;BME280;75413;50.144;8.456;2024-01-25T08:41:27;100276.63;;;7.86;68.11
85078;BME280;75413;50.144;8.456;2024-01-25T08:44:11;100246.41;;;7.80;67.35
85078;BME280;75413;50.144;8.456;2024-01-25T08:46:55;100256.72;;;8.05;67.18
85078;BME280;75413;50.144;8.456;2024-01-25T08:49:43;100263.53;;;8.19;66.87
85078;BME280;75413;50.144;8.456;2024-01-25T08:52:26;100290.06;;;8.38;66.34
85078;BME280;75413;50.144;8.456;2024-01-25T08:55:14;100286.63;;;8.26;66.06
85078;BME280;75413;50.144;8.456;2024-01-25T08:57:57;100235.19;;;7.89;66.59
85078;BME280;75413;50.144;8.456;2024-01-25T09:00:41;100252.28;;;7.95;67.09
85078;BME280;75413;50.144;8.456;2024-01-25T09:03:25;100247.84;;;7.84;67.64
85078;BME280;75413;50.144;8.456;2024-01-25T09:06:09;100289.09;;;8.06;67.21
85078;BME280;75413;50.144;8.456;2024-01-25T09:08:53;100278.09;;;8.12;66.76
85078;BME280;75413;50.144;8.456;2024-01-25T09:11:37;100286.25;;;8.53;65.75
85078;BME280;75413;50.144;8.456;2024-01-25T09:14:21;100292.69;;;8.71;64.96
85078;BME280;75413;50.144;8.456;2024-01-25T09:17:05;100284.41;;;8.75;64.60
85078;BME280;75413;50.144;8.456;2024-01-25T09:19:49;100276.78;;;8.72;64.18
85078;BME280;75413;50.144;8.456;2024-01-25T09:22:34;100273.22;;;8.51;65.37
85078;BME280;75413;50.144;8.456;2024-01-25T09:25:17;100291.03;;;8.37;65.17
85078;BME280;75413;50.144;8.456;2024-01-25T09:28:02;100281.50;;;8.36;65.17
85078;BME280;75413;50.144;8.456;2024-01-25T09:30:49;100276.47;;;8.33;64.83
85078;BME280;75413;50.144;8.456;2024-01-25T09:33:33;100276.94;;;8.38;65.48
85078;BME280;75413;50.144;8.456;2024-01-25T09:36:17;100285.66;;;8.49;65.16
85078;BME280;75413;50.144;8.456;2024-01-25T09:39:01;100287.47;;;8.49;64.28
85078;BME280;75413;50.144;8.456;2024-01-25T09:41:46;100293.41;;;8.62;64.52
85078;BME280;75413;50.144;8.456;2024-01-25T09:44:30;100297.91;;;8.82;63.08
85078;BME280;75413;50.144;8.456;2024-01-25T09:47:14;100300.03;;;8.99;62.88
85078;BME280;75413;50.144;8.456;2024-01-25T09:50:16;100277.66;;;8.51;63.05
85078;BME280;75413;50.144;8.456;2024-01-25T09:53:00;100298.88;;;8.81;62.67
85078;BME280;75413;50.144;8.456;2024-01-25T09:55:45;100291.38;;;8.54;62.78
85078;BME280;75413;50.144;8.456;2024-01-25T09:58:37;100307.63;;;8.70;63.93
85078;BME280;75413;50.144;8.456;2024-01-25T10:01:22;100310.38;;;8.69;64.32
85078;BME280;75413;50.144;8.456;2024-01-25T10:04:06;100310.47;;;8.67;63.57
85078;BME280;75413;50.144;8.456;2024-01-25T10:06:55;100309.88;;;8.86;64.00
85078;BME280;75413;50.144;8.456;2024-01-25T10:09:41;100287.72;;;8.99;62.87
85078;BME280;75413;50.144;8.456;2024-01-25T10:12:25;100286.41;;;9.05;62.88
85078;BME280;75413;50.144;8.456;2024-01-25T10:15:09;100282.91;;;9.15;62.58
85078;BME280;75413;50.144;8.456;2024-01-25T10:17:54;100304.00;;;9.36;62.53
85078;BME280;75413;50.144;8.456;2024-01-25T10:20:39;100310.47;;;9.32;62.85
85078;BME280;75413;50.144;8.456;2024-01-25T10:23:28;100313.69;;;9.35;62.65
85078;BME280;75413;50.144;8.456;2024-01-25T10:26:12;100312.88;;;9.24;63.24
85078;BME280;75413;50.144;8.456;2024-01-25T10:28:56;100278.97;;;9.10;62.97
85078;BME280;75413;50.144;8.456;2024-01-25T10:31:41;100307.31;;;9.38;62.32
85078;BME280;75413;50.144;8.456;2024-01-25T10:34:26;100293.66;;;9.12;62.12
85078;BME280;75413;50.144;8.456;2024-01-25T10:37:13;100274.03;;;9.16;62.16
85078;BME280;75413;50.144;8.456;2024-01-25T10:39:58;100286.03;;;9.41;61.83
85078;BME280;75413;50.144;8.456;2024-01-25T10:42:43;100300.69;;;9.23;61.44
85078;BME280;75413;50.144;8.456;2024-01-25T10:45:27;100331.31;;;9.55;61.76
85078;BME280;75413;50.144;8.456;2024-01-25T10:48:11;100325.16;;;9.66;61.97
85078;BME280;75413;50.144;8.456;2024-01-25T10:50:56;100321.00;;;9.63;61.32
85078;BME280;75413;50.144;8.456;2024-01-25T10:53:40;100321.25;;;9.81;60.88
85078;BME280;75413;50.144;8.456;2024-01-25T10:56:24;100292.22;;;9.92;60.22
85078;BME280;75413;50.144;8.456;2024-01-25T10:59:10;100310.44;;;10.04;59.45
85078;BME280;75413;50.144;8.456;2024-01-25T11:01:54;100286.75;;;9.84;59.41
85078;BME280;75413;50.144;8.456;2024-01-25T11:04:40;100293.63;;;9.96;59.61
85078;BME280;75413;50.144;8.456;2024-01-25T11:07:24;100290.34;;;9.83;60.26
85078;BME280;75413;50.144;8.456;2024-01-25T11:10:19;100287.25;;;9.98;60.05
85078;BME280;75413;50.144;8.456;2024-01-25T11:13:04;100292.78;;;9.95;59.48
85078;BME280;75413;50.144;8.456;2024-01-25T11:15:49;100307.63;;;9.76;59.97
85078;BME280;75413;50.144;8.456;2024-01-25T11:18:33;100298.63;;;9.58;60.90
85078;BME280;75413;50.144;8.456;2024-01-25T11:21:44;100303.53;;;9.83;60.56
85078;BME280;75413;50.144;8.456;2024-01-25T11:24:28;100303.78;;;9.59;60.13
85078;BME280;75413;50.144;8.456;2024-01-25T11:27:16;100302.03;;;9.49;57.42
85078;BME280;75413;50.144;8.456;2024-01-25T11:30:00;100292.97;;;9.62;56.50
85078;BME280;75413;50.144;8.456;2024-01-25T11:32:45;100285.59;;;9.97;57.79
85078;BME280;75413;50.144;8.456;2024-01-25T11:35:29;100258.09;;;9.90;57.44
85078;BME280;75413;50.144;8.456;2024-01-25T11:38:13;100277.94;;;9.94;55.81
85078;BME280;75413;50.144;8.456;2024-01-25T11:40:57;100274.59;;;9.72;55.39
85078;BME280;75413;50.144;8.456;2024-01-25T11:43:42;100256.09;;;9.62;55.77
85078;BME280;75413;50.144;8.456;2024-01-25T11:46:26;100259.25;;;9.56;55.56
85078;BME280;75413;50.144;8.456;2024-01-25T11:49:09;100275.00;;;9.88;56.25
85078;BME280;75413;50.144;8.456;2024-01-25T11:51:53;100279.78;;;10.24;56.20
85078;BME280;75413;50.144;8.456;2024-01-25T11:54:37;100268.19;;;10.36;56.57
85078;BME280;75413;50.144;8.456;2024-01-25T11:57:21;100247.53;;;10.11;56.53
85078;BME280;75413;50.144;8.456;2024-01-25T12:00:07;100264.09;;;10.02;54.33
85078;BME280;75413;50.144;8.456;2024-01-25T12:02:54;100261.75;;;10.19;55.51
85078;BME280;75413;50.144;8.456;2024-01-25T12:05:38;100263.63;;;10.08;56.08
85078;BME280;75413;50.144;8.456;2024-01-25T12:08:23;100259.38;;;9.96;55.11
85078;BME280;75413;50.144;8.456;2024-01-25T12:11:09;100250.19;;;9.90;54.63
85078;BME280;75413;50.144;8.456;2024-01-25T12:13:53;100239.53;;;9.92;53.86
85078;BME280;75413;50.144;8.456;2024-01-25T12:16:40;100233.69;;;10.09;53.25
85078;BME280;75413;50.144;8.456;2024-01-25T12:19:24;100210.16;;;10.26;52.61
85078;BME280;75413;50.144;8.456;2024-01-25T12:22:11;100223.72;;;10.61;52.11
85078;BME280;75413;50.144;8.456;2024-01-25T12:24:55;100223.06;;;10.88;51.15
85078;BME280;75413;50.144;8.456;2024-01-25T12:27:42;100214.88;;;10.91;50.82
85078;BME280;75413;50.144;8.456;2024-01-25T12:30:29;100200.72;;;11.11;49.87
85078;BME280;75413;50.144;8.456;2024-01-25T12:33:13;100205.97;;;10.82;50.64
85078;BME280;75413;50.144;8.456;2024-01-25T12:35:58;100213.03;;;10.63;50.83
85078;BME280;75413;50.144;8.456;2024-01-25T12:38:45;100194.47;;;10.83;50.49
85078;BME280;75413;50.144;8.456;2024-01-25T12:41:29;100203.91;;;10.95;49.36
85078;BME280;75413;50.144;8.456;2024-01-25T12:44:16;100178.91;;;10.80;49.30
85078;BME280;75413;50.144;8.456;2024-01-25T12:47:00;100184.03;;;11.01;49.38
85078;BME280;75413;50.144;8.456;2024-01-25T12:49:46;100203.75;;;11.44;49.26
85078;BME280;75413;50.144;8.456;2024-01-25T12:52:30;100198.19;;;11.76;48.11
85078;BME280;75413;50.144;8.456;2024-01-25T12:55:14;100197.19;;;11.86;46.50
85078;BME280;75413;50.144;8.456;2024-01-25T12:57:58;100193.16;;;12.19;46.23
85078;BME280;75413;50.144;8.456;2024-01-25T13:00:42;100158.78;;;12.36;46.52
85078;BME280;75413;50.144;8.456;2024-01-25T13:03:29;100182.47;;;12.82;45.87
85078;BME280;75413;50.144;8.456;2024-01-25T13:06:17;100177.47;;;12.62;46.53
85078;BME280;75413;50.144;8.456;2024-01-25T13:09:01;100183.72;;;12.96;45.44
85078;BME280;75413;50.144;8.456;2024-01-25T13:11:45;100183.94;;;12.50;45.39
85078;BME280;75413;50.144;8.456;2024-01-25T13:14:29;100181.69;;;12.28;45.55
85078;BME280;75413;50.144;8.456;2024-01-25T13:17:13;100180.91;;;12.62;44.28
85078;BME280;75413;50.144;8.456;2024-01-25T13:19:57;100149.34;;;12.34;45.32
85078;BME280;75413;50.144;8.456;2024-01-25T13:22:41;100168.72;;;12.34;45.58
85078;BME280;75413;50.144;8.456;2024-01-25T13:25:25;100156.09;;;12.46;44.96
85078;BME280;75413;50.144;8.456;2024-01-25T13:28:09;100147.13;;;12.56;45.22
85078;BME280;75413;50.144;8.456;2024-01-25T13:30:53;100162.38;;;12.62;45.24
85078;BME280;75413;50.144;8.456;2024-01-25T13:33:41;100149.47;;;12.59;45.76
85078;BME280;75413;50.144;8.456;2024-01-25T13:36:25;100165.88;;;12.63;45.75
85078;BME280;75413;50.144;8.456;2024-01-25T13:39:09;100166.22;;;12.50;46.01
85078;BME280;75413;50.144;8.456;2024-01-25T13:41:54;100152.69;;;12.36;46.55
85078;BME280;75413;50.144;8.456;2024-01-25T13:44:37;100151.06;;;12.52;47.30
85078;BME280;75413;50.144;8.456;2024-01-25T13:47:22;100106.34;;;12.32;45.87
85078;BME280;75413;50.144;8.456;2024-01-25T13:50:08;100141.22;;;12.45;45.51
85078;BME280;75413;50.144;8.456;2024-01-25T13:52:52;100144.19;;;12.32;45.92
85078;BME280;75413;50.144;8.456;2024-01-25T13:55:36;100140.66;;;12.41;46.78
85078;BME280;75413;50.144;8.456;2024-01-25T13:58:20;100150.66;;;12.47;46.45
85078;BME280;75413;50.144;8.456;2024-01-25T14:01:04;100148.72;;;11.95;46.85
85078;BME280;75413;50.144;8.456;2024-01-25T14:03:48;100147.50;;;11.90;47.91
85078;BME280;75413;50.144;8.456;2024-01-25T14:06:32;100144.75;;;11.72;48.62
85078;BME280;75413;50.144;8.456;2024-01-25T14:09:16;100104.91;;;11.47;48.58
85078;BME280;75413;50.144;8.456;2024-01-25T14:12:00;100144.91;;;11.71;48.45
85078;BME280;75413;50.144;8.456;2024-01-25T14:14:44;100150.50;;;11.68;48.11
85078;BME280;75413;50.144;8.456;2024-01-25T14:17:30;100149.66;;;11.67;47.81
85078;BME280;75413;50.144;8.456;2024-01-25T14:20:14;100137.69;;;11.54;48.89
85078;BME280;75413;50.144;8.456;2024-01-25T14:22:58;100117.47;;;11.26;49.16
85078;BME280;75413;50.144;8.456;2024-01-25T14:25:43;100125.78;;;11.40;49.53
85078;BME280;75413;50.144;8.456;2024-01-25T14:28:32;100121.63;;;11.38;49.91
85078;BME280;75413;50.144;8.456;2024-01-25T14:31:16;100117.59;;;11.43;49.01
85078;BME280;75413;50.144;8.456;2024-01-25T14:33:59;100112.72;;;11.29;49.82
85078;BME280;75413;50.144;8.456;2024-01-25T14:36:43;100134.16;;;11.17;49.80
85078;BME280;75413;50.144;8.456;2024-01-25T14:39:28;100136.50;;;11.39;49.28
85078;BME280;75413;50.144;8.456;2024-01-25T14:42:12;100131.78;;;11.23;50.28
85078;BME280;75413;50.144;8.456;2024-01-25T14:44:56;100107.22;;;11.13;49.70
85078;BME280;75413;50.144;8.456;2024-01-25T14:47:40;100123.59;;;11.26;49.69